Página principal
Imagens de satélite Previsões 15 diasClimaMeteorologia maritima Ciclones Descargas eléctricas AeroportosFAQ Notícias Sobre
Tempo : Europa África América do Norte América do Sul Ásia Austrália-Oceania Outros
Línguas Contacto

Cambridge, Inglaterra

latitude: 52-12N, longitude: 000-11E, altura: 15 m


METAR: EGSC 221850Z 22007KT 160V240 9999 SCT026 11/08 Q1023
TAF: EGSC 221702Z 2218/2221 25010KT 9999 BKN045

Hora: 00:50 (23:50 UTC)

Observação actual do tempo

O boletim foi feito há 5 horas e 0 minutos, às 18:50 UTC
Vento 7 kt de sudoeste, variando entre su-sudeste e oes-sudoeste
Temperatura 11°C
Humidade 82%
Pressão 1023 hPa
Visibilidade 10 km ou mais
Nuvens dispersas a uma altura de 2600 ft

Mudar unidades

Previsão

O boletim foi feito há 6 horas e 48 minutos, às 17:02 UTC
Previsão válida de 22 às 18 UTC a 22 às 21 UTC
Vento 10 kt de oes-sudoeste
Visibilidade 10 km ou mais
Nuvens fragmentadas a uma altura de 4500 ft
As informações contidas neste sítio estão sujeitas a uma declaração de exoneração de responsabilidade
Tempo : Europa África América do Norte América do Sul Ásia Austrália-Oceania Outros
Imagens de satélite Previsões 15 diasClimaMeteorologia maritima Ciclones Descargas eléctricas AeroportosFAQ Línguas Contacto Notícias Sobre